createdAt,value
2017-12-24T00:00:52.117Z,34.30
2017-12-24T00:01:52.089Z,32.70
2017-12-24T00:02:52.071Z,33.60
2017-12-24T00:03:52.051Z,30.80
2017-12-24T00:04:52.031Z,31.80
2017-12-24T00:05:52.010Z,31.50
2017-12-24T00:06:51.995Z,31.20
2017-12-24T00:07:51.978Z,32.10
2017-12-24T00:08:51.956Z,31.30
2017-12-24T00:09:51.933Z,31.10
2017-12-24T00:10:51.914Z,31.20
2017-12-24T00:11:51.895Z,33.60
2017-12-24T00:12:51.879Z,31.90
2017-12-24T00:13:51.859Z,32.00
2017-12-24T00:14:51.842Z,31.70
2017-12-24T00:15:51.825Z,31.20
2017-12-24T00:16:51.798Z,32.80
2017-12-24T00:17:51.782Z,31.70
2017-12-24T00:18:51.760Z,31.80
2017-12-24T00:19:51.742Z,33.30
2017-12-24T00:20:51.728Z,33.70
2017-12-24T00:21:51.705Z,32.70
2017-12-24T00:22:51.681Z,32.40
2017-12-24T00:23:51.664Z,32.40
2017-12-24T00:24:51.647Z,31.50
2017-12-24T00:25:51.632Z,32.70
2017-12-24T00:26:51.607Z,33.10
2017-12-24T00:27:51.587Z,29.90
2017-12-24T00:28:51.568Z,34.00
2017-12-24T00:29:51.559Z,31.60
2017-12-24T00:30:51.530Z,33.10
2017-12-24T00:31:51.508Z,32.20
2017-12-24T00:32:51.494Z,32.40
2017-12-24T00:33:51.472Z,33.20
2017-12-24T00:34:51.458Z,32.90
2017-12-24T00:35:51.435Z,32.70
2017-12-24T00:36:51.418Z,33.50
2017-12-24T00:37:51.394Z,33.40
2017-12-24T00:38:51.376Z,32.60
2017-12-24T00:39:51.360Z,34.00
2017-12-24T00:40:51.339Z,35.20
2017-12-24T00:41:51.319Z,35.00
2017-12-24T00:42:51.298Z,35.30
2017-12-24T00:43:51.282Z,33.00
2017-12-24T00:44:51.264Z,34.40
2017-12-24T00:45:51.249Z,35.20
2017-12-24T00:46:51.226Z,34.40
2017-12-24T00:47:51.204Z,33.70
2017-12-24T00:48:51.182Z,34.80
2017-12-24T00:49:51.172Z,37.00
2017-12-24T00:50:51.149Z,36.40
2017-12-24T00:51:51.137Z,36.10
2017-12-24T00:52:51.111Z,35.60
2017-12-24T00:53:51.089Z,37.70
2017-12-24T00:54:51.079Z,36.90
2017-12-24T00:55:51.058Z,36.80
2017-12-24T00:56:51.028Z,37.40
2017-12-24T00:57:51.007Z,37.70
2017-12-24T00:58:50.996Z,35.70
2017-12-24T00:59:50.971Z,36.10
2017-12-24T01:00:50.952Z,36.80
2017-12-24T01:01:50.936Z,36.00
2017-12-24T01:02:50.912Z,36.20
2017-12-24T01:03:50.894Z,36.70
2017-12-24T01:04:50.878Z,36.10
2017-12-24T01:05:50.858Z,35.30
2017-12-24T01:06:50.838Z,35.40
2017-12-24T01:07:50.821Z,36.80
2017-12-24T01:08:50.810Z,36.30
2017-12-24T01:09:50.780Z,37.60
2017-12-24T01:10:50.759Z,35.80
2017-12-24T01:11:50.741Z,36.40
2017-12-24T01:12:50.732Z,36.70
2017-12-24T01:13:50.702Z,35.80
2017-12-24T01:14:50.693Z,36.30
2017-12-24T01:15:50.665Z,36.10
2017-12-24T01:16:50.644Z,35.60
2017-12-24T01:17:50.625Z,37.00
2017-12-24T01:18:50.609Z,37.60
2017-12-24T01:19:50.586Z,37.50
2017-12-24T01:20:50.574Z,36.40
2017-12-24T01:21:50.547Z,36.50
2017-12-24T01:22:50.528Z,35.20
2017-12-24T01:23:50.507Z,35.20
2017-12-24T01:24:50.492Z,36.20
2017-12-24T01:25:50.470Z,36.00
2017-12-24T01:26:50.454Z,35.50
2017-12-24T01:27:50.436Z,36.00
2017-12-24T01:28:50.411Z,36.70
2017-12-24T01:29:50.398Z,35.70
2017-12-24T01:30:50.379Z,34.90
2017-12-24T01:31:50.359Z,35.90
2017-12-24T01:32:50.343Z,35.40
2017-12-24T01:33:50.319Z,35.60
2017-12-24T01:34:50.302Z,33.80
2017-12-24T01:35:50.276Z,33.50
2017-12-24T01:36:50.258Z,34.40
2017-12-24T01:37:50.236Z,35.80
2017-12-24T01:38:50.222Z,33.80
2017-12-24T01:39:50.255Z,34.40
2017-12-24T01:40:50.188Z,33.70
2017-12-24T01:41:50.166Z,35.20
2017-12-24T01:42:50.151Z,34.70
2017-12-24T01:43:50.127Z,33.50
2017-12-24T01:44:50.112Z,31.90
2017-12-24T01:45:50.087Z,32.80
2017-12-24T01:46:50.070Z,30.70
2017-12-24T01:47:50.048Z,30.90
2017-12-24T01:48:50.031Z,32.60
2017-12-24T01:49:50.010Z,32.20
2017-12-24T01:50:49.991Z,32.80
2017-12-24T01:51:49.968Z,31.30
2017-12-24T01:52:49.953Z,31.50
2017-12-24T01:53:49.931Z,31.40
2017-12-24T01:54:49.914Z,31.50
2017-12-24T01:55:49.956Z,30.20
2017-12-24T01:56:49.875Z,29.60
2017-12-24T01:57:49.857Z,30.60
2017-12-24T01:58:49.840Z,30.30
2017-12-24T01:59:49.818Z,32.50
2017-12-24T02:00:49.796Z,30.10
2017-12-24T02:01:49.779Z,32.90
2017-12-24T02:02:49.769Z,33.70
2017-12-24T02:03:49.739Z,33.60
2017-12-24T02:04:49.718Z,32.50
2017-12-24T02:05:49.710Z,31.10
2017-12-24T02:06:49.684Z,33.90
2017-12-24T02:07:49.666Z,33.30
2017-12-24T02:08:49.643Z,32.40
2017-12-24T02:09:49.627Z,32.60
2017-12-24T02:10:49.604Z,32.70
2017-12-24T02:11:49.586Z,32.80
2017-12-24T02:12:49.567Z,32.80
2017-12-24T02:13:49.549Z,32.80
2017-12-24T02:14:49.529Z,31.90
2017-12-24T02:15:49.509Z,31.70
2017-12-24T02:16:49.489Z,30.80
2017-12-24T02:17:49.469Z,31.50
2017-12-24T02:18:49.453Z,33.40
2017-12-24T02:19:49.430Z,33.60
2017-12-24T02:20:49.411Z,32.90
2017-12-24T02:21:49.399Z,31.90
2017-12-24T02:22:49.379Z,34.20
2017-12-24T02:23:49.360Z,33.20
2017-12-24T02:24:49.334Z,34.00
2017-12-24T02:25:49.319Z,33.50
2017-12-24T02:26:49.303Z,34.80
2017-12-24T02:27:49.278Z,33.30
2017-12-24T02:28:49.258Z,33.10
2017-12-24T02:29:49.240Z,33.50
2017-12-24T02:30:49.220Z,35.60
2017-12-24T02:31:49.211Z,33.70
2017-12-24T02:32:49.184Z,35.90
2017-12-24T02:33:49.169Z,34.10
2017-12-24T02:34:49.151Z,36.70
2017-12-24T02:35:49.128Z,34.40
2017-12-24T02:36:49.107Z,33.50
2017-12-24T02:37:49.090Z,34.40
2017-12-24T02:38:49.069Z,33.20
2017-12-24T02:39:49.055Z,34.10
2017-12-24T02:40:49.031Z,33.50
2017-12-24T02:41:49.009Z,34.30
2017-12-24T02:42:48.995Z,34.60
2017-12-24T02:43:48.977Z,35.40
2017-12-24T02:44:48.956Z,34.60
2017-12-24T02:45:48.932Z,34.40
2017-12-24T02:46:48.915Z,34.50
2017-12-24T02:47:48.901Z,33.10
2017-12-24T02:48:48.875Z,36.00
2017-12-24T02:49:48.861Z,34.40
2017-12-24T02:50:48.836Z,35.50
2017-12-24T02:51:48.818Z,34.40
2017-12-24T02:52:48.802Z,34.20
2017-12-24T02:53:48.782Z,34.60
2017-12-24T02:54:48.818Z,34.30
2017-12-24T02:55:48.739Z,35.00
2017-12-24T02:56:48.731Z,34.80
2017-12-24T02:57:48.704Z,32.90
2017-12-24T02:58:48.684Z,35.20
2017-12-24T02:59:48.661Z,33.00
2017-12-24T03:00:48.655Z,33.10
2017-12-24T03:01:48.623Z,34.00
2017-12-24T03:02:48.607Z,31.30
2017-12-24T03:03:48.599Z,33.40
2017-12-24T03:04:48.570Z,35.40
2017-12-24T03:05:48.548Z,34.50
2017-12-24T03:06:48.532Z,34.30
2017-12-24T03:07:48.508Z,34.00
2017-12-24T03:08:48.489Z,34.40
2017-12-24T03:09:48.468Z,33.90
2017-12-24T03:10:48.456Z,34.70
2017-12-24T03:11:48.430Z,34.30
2017-12-24T03:12:48.419Z,32.40
2017-12-24T03:13:48.394Z,33.20
2017-12-24T03:14:48.373Z,34.40
2017-12-24T03:15:48.368Z,33.10
2017-12-24T03:16:48.336Z,35.70
2017-12-24T03:17:48.319Z,33.90
2017-12-24T03:18:48.300Z,33.90
2017-12-24T03:19:48.279Z,33.30
2017-12-24T03:20:48.258Z,33.60
2017-12-24T03:21:48.239Z,33.40
2017-12-24T03:22:48.220Z,34.90
2017-12-24T03:23:48.201Z,33.60
2017-12-24T03:24:48.188Z,33.20
2017-12-24T03:25:48.163Z,32.40
2017-12-24T03:26:48.148Z,33.90
2017-12-24T03:27:48.128Z,32.50
2017-12-24T03:28:48.113Z,32.50
2017-12-24T03:29:48.088Z,32.50
2017-12-24T03:30:48.067Z,32.20
2017-12-24T03:31:48.048Z,33.00
2017-12-24T03:32:48.032Z,32.00
2017-12-24T03:33:48.010Z,33.20
2017-12-24T03:34:47.997Z,32.40
2017-12-24T03:35:47.972Z,32.90
2017-12-24T03:36:47.954Z,32.60
2017-12-24T03:37:47.936Z,34.20
2017-12-24T03:38:47.914Z,32.50
2017-12-24T03:39:47.895Z,33.50
2017-12-24T03:40:47.876Z,33.10
2017-12-24T03:41:47.859Z,33.80
2017-12-24T03:42:47.838Z,33.60
2017-12-24T03:43:47.825Z,33.50
2017-12-24T03:44:47.807Z,33.20
2017-12-24T03:45:47.784Z,32.80
2017-12-24T03:46:47.761Z,34.00
2017-12-24T03:47:47.750Z,33.40
2017-12-24T03:48:47.736Z,34.70
2017-12-24T03:49:47.708Z,32.60
2017-12-24T03:50:47.696Z,34.20
2017-12-24T03:51:47.668Z,31.90
2017-12-24T03:52:47.650Z,33.50
2017-12-24T03:53:47.629Z,32.70
2017-12-24T03:54:47.610Z,32.40
2017-12-24T03:55:47.589Z,31.10
2017-12-24T03:56:47.580Z,33.10
2017-12-24T03:57:47.554Z,32.20
2017-12-24T03:58:47.537Z,29.60
2017-12-24T03:59:47.518Z,32.70
2017-12-24T04:00:47.500Z,32.50
2017-12-24T04:01:47.480Z,33.00
2017-12-24T04:02:47.460Z,32.50
2017-12-24T04:03:47.439Z,33.70
2017-12-24T04:04:47.420Z,32.60
2017-12-24T04:05:47.398Z,33.40
2017-12-24T04:06:47.385Z,32.40
2017-12-24T04:07:47.372Z,31.70
2017-12-24T04:08:47.349Z,32.50
2017-12-24T04:09:47.323Z,33.10
2017-12-24T04:10:47.308Z,31.90
2017-12-24T04:11:47.283Z,32.70
2017-12-24T04:12:47.267Z,32.30
2017-12-24T04:13:47.250Z,30.80
2017-12-24T04:14:47.227Z,33.00
2017-12-24T04:15:47.208Z,33.00
2017-12-24T04:16:47.193Z,32.30
2017-12-24T04:17:47.171Z,33.20
2017-12-24T04:18:47.157Z,33.60
2017-12-24T04:19:47.137Z,30.10
2017-12-24T04:20:47.123Z,33.30
2017-12-24T04:21:47.098Z,33.00
2017-12-24T04:22:47.078Z,32.90
2017-12-24T04:23:47.058Z,33.10
2017-12-24T04:24:47.045Z,33.70
2017-12-24T04:25:47.018Z,32.80
2017-12-24T04:26:47.011Z,34.70
2017-12-24T04:27:46.982Z,33.20
2017-12-24T04:28:46.966Z,33.20
2017-12-24T04:29:46.949Z,35.10
2017-12-24T04:30:46.930Z,30.90
2017-12-24T04:31:46.903Z,33.20
2017-12-24T04:32:46.891Z,33.50
2017-12-24T04:33:46.868Z,33.40
2017-12-24T04:34:46.852Z,33.60
2017-12-24T04:35:46.828Z,32.00
2017-12-24T04:36:46.807Z,32.90
2017-12-24T04:37:46.788Z,32.70
2017-12-24T04:38:46.777Z,32.90
2017-12-24T04:39:46.751Z,31.20
2017-12-24T04:40:46.734Z,30.70
2017-12-24T04:41:46.714Z,30.60
2017-12-24T04:42:46.709Z,32.00
2017-12-24T04:43:46.675Z,31.30
2017-12-24T04:44:46.660Z,31.10
2017-12-24T04:45:46.637Z,31.30
2017-12-24T04:46:46.619Z,31.00
2017-12-24T04:47:46.602Z,31.20
2017-12-24T04:48:46.579Z,32.20
2017-12-24T04:49:46.559Z,31.60
2017-12-24T04:50:46.540Z,31.30
2017-12-24T04:51:46.524Z,30.50
2017-12-24T04:52:46.508Z,32.10
2017-12-24T04:53:46.484Z,30.90
2017-12-24T04:54:46.466Z,28.70
2017-12-24T04:55:46.449Z,29.00
2017-12-24T04:56:46.429Z,31.10
2017-12-24T04:57:46.410Z,31.40
2017-12-24T04:58:46.389Z,31.10
2017-12-24T04:59:46.369Z,31.20
2017-12-24T05:00:46.349Z,30.30
2017-12-24T05:01:46.330Z,32.90
2017-12-24T05:02:46.314Z,30.50
2017-12-24T05:03:46.295Z,30.50
2017-12-24T05:04:46.279Z,29.40
2017-12-24T05:05:46.257Z,31.10
2017-12-24T05:06:46.240Z,30.90
2017-12-24T05:07:46.215Z,31.40
2017-12-24T05:08:46.202Z,28.90
2017-12-24T05:09:46.178Z,31.20
2017-12-24T05:10:46.162Z,32.40
2017-12-24T05:11:46.136Z,29.50
2017-12-24T05:12:46.117Z,31.90
2017-12-24T05:13:46.098Z,29.90
2017-12-24T05:14:46.080Z,30.00
2017-12-24T05:15:46.064Z,29.40
2017-12-24T05:16:46.103Z,29.40
2017-12-24T05:17:46.025Z,30.60
2017-12-24T05:18:46.007Z,32.70
2017-12-24T05:19:45.987Z,30.80
2017-12-24T05:20:45.971Z,28.40
2017-12-24T05:21:45.946Z,31.40
2017-12-24T05:22:45.931Z,31.10
2017-12-24T05:23:45.908Z,30.30
2017-12-24T05:24:45.888Z,31.90
2017-12-24T05:25:45.869Z,30.90
2017-12-24T05:26:45.851Z,29.90
2017-12-24T05:27:45.842Z,30.20
2017-12-24T05:28:45.815Z,31.30
2017-12-24T05:29:45.795Z,31.70
2017-12-24T05:30:45.770Z,32.50
2017-12-24T05:31:45.755Z,30.60
2017-12-24T05:32:45.738Z,30.80
2017-12-24T05:33:45.719Z,32.20
2017-12-24T05:34:45.700Z,32.40
2017-12-24T05:35:45.679Z,30.20
2017-12-24T05:36:45.658Z,30.50
2017-12-24T05:37:45.643Z,30.90
2017-12-24T05:38:45.621Z,29.50
2017-12-24T05:39:45.605Z,30.40
2017-12-24T05:40:45.585Z,30.90
2017-12-24T05:41:45.575Z,30.50
2017-12-24T05:42:45.546Z,29.20
2017-12-24T05:43:45.524Z,29.90
2017-12-24T05:44:45.520Z,29.10
2017-12-24T05:45:45.490Z,30.40
2017-12-24T05:46:45.472Z,30.50
2017-12-24T05:47:45.446Z,28.90
2017-12-24T05:48:45.432Z,29.60
2017-12-24T05:49:45.410Z,29.30
2017-12-24T05:50:45.388Z,29.20
2017-12-24T05:51:45.376Z,28.50
2017-12-24T05:52:45.353Z,29.20
2017-12-24T05:53:45.335Z,28.30
2017-12-24T05:54:45.319Z,28.80
2017-12-24T05:55:45.297Z,28.40
2017-12-24T05:56:45.290Z,29.20
2017-12-24T05:57:45.257Z,30.90
2017-12-24T05:58:45.239Z,29.50
2017-12-24T05:59:45.219Z,29.70
2017-12-24T06:00:45.204Z,27.80
2017-12-24T06:01:45.186Z,29.20
2017-12-24T06:02:45.162Z,29.80
2017-12-24T06:03:45.150Z,27.50
2017-12-24T06:04:45.129Z,29.60
2017-12-24T06:05:45.107Z,31.00
2017-12-24T06:06:45.091Z,29.30
2017-12-24T06:07:45.069Z,29.00
2017-12-24T06:08:45.050Z,27.00
2017-12-24T06:09:45.027Z,27.90
2017-12-24T06:10:45.021Z,29.40
2017-12-24T06:11:44.992Z,29.60
2017-12-24T06:12:44.969Z,30.10
2017-12-24T06:13:44.947Z,29.90
2017-12-24T06:14:44.931Z,29.10
2017-12-24T06:15:44.920Z,30.80
2017-12-24T06:16:44.897Z,29.50
2017-12-24T06:17:44.880Z,28.60
2017-12-24T06:18:44.855Z,28.50
2017-12-24T06:19:44.848Z,29.80
2017-12-24T06:20:44.820Z,28.90
2017-12-24T06:21:44.797Z,30.80
2017-12-24T06:22:44.779Z,30.90
2017-12-24T06:23:44.758Z,31.20
2017-12-24T06:24:44.742Z,31.80
2017-12-24T06:25:44.719Z,31.60
2017-12-24T06:26:44.702Z,30.90
2017-12-24T06:27:44.693Z,31.70
2017-12-24T06:28:44.663Z,31.30
2017-12-24T06:29:44.657Z,31.40
2017-12-24T06:30:44.623Z,31.50
2017-12-24T06:31:44.608Z,32.10
2017-12-24T06:32:44.588Z,32.00
2017-12-24T06:33:44.572Z,32.70
2017-12-24T06:34:44.552Z,31.60
2017-12-24T06:35:44.531Z,30.70
2017-12-24T06:36:44.520Z,32.00
2017-12-24T06:37:44.496Z,31.30
2017-12-24T06:38:44.476Z,32.30
2017-12-24T06:39:44.455Z,32.60
2017-12-24T06:40:44.441Z,31.80
2017-12-24T06:41:44.413Z,34.00
2017-12-24T06:42:44.393Z,30.70
2017-12-24T06:43:44.377Z,30.10
2017-12-24T06:44:44.359Z,29.30
2017-12-24T06:45:44.337Z,31.90
2017-12-24T06:46:44.318Z,30.70
2017-12-24T06:47:44.298Z,31.90
2017-12-24T06:48:44.290Z,31.30
2017-12-24T06:49:44.263Z,30.30
2017-12-24T06:50:44.244Z,31.40
2017-12-24T06:51:44.222Z,28.80
2017-12-24T06:52:44.203Z,30.90
2017-12-24T06:53:44.188Z,29.80
2017-12-24T06:54:44.173Z,29.30
2017-12-24T06:55:44.149Z,29.70
2017-12-24T06:56:44.130Z,29.30
2017-12-24T06:57:44.107Z,30.60
2017-12-24T06:58:44.089Z,29.60
2017-12-24T06:59:44.069Z,29.10
2017-12-24T07:00:44.056Z,28.80
2017-12-24T07:01:44.038Z,28.90
2017-12-24T07:02:44.015Z,29.00
2017-12-24T07:03:43.997Z,28.50
2017-12-24T07:04:43.977Z,29.40
2017-12-24T07:05:43.972Z,28.70
2017-12-24T07:06:43.941Z,29.90
2017-12-24T07:07:43.916Z,29.50
2017-12-24T07:08:43.900Z,29.40
2017-12-24T07:09:43.880Z,29.20
2017-12-24T07:10:43.862Z,29.30
2017-12-24T07:11:43.840Z,30.20
2017-12-24T07:12:43.824Z,28.20
2017-12-24T07:13:43.799Z,27.40
2017-12-24T07:14:43.788Z,26.90
2017-12-24T07:15:43.770Z,29.00
2017-12-24T07:16:43.745Z,28.70
2017-12-24T07:17:43.725Z,29.80
2017-12-24T07:18:43.705Z,29.80
2017-12-24T07:19:43.689Z,27.80
2017-12-24T07:20:43.668Z,28.80
2017-12-24T07:21:43.647Z,26.50
2017-12-24T07:22:43.632Z,27.40
2017-12-24T07:23:43.610Z,27.90
2017-12-24T07:24:43.598Z,28.20
2017-12-24T07:25:43.578Z,26.60
2017-12-24T07:26:43.556Z,26.40
2017-12-24T07:27:43.537Z,28.90
2017-12-24T07:28:43.516Z,28.60
2017-12-24T07:29:43.500Z,26.80
2017-12-24T07:30:43.481Z,26.70
2017-12-24T07:31:43.461Z,29.30
2017-12-24T07:32:43.440Z,27.20
2017-12-24T07:33:43.420Z,27.50
2017-12-24T07:34:43.399Z,26.50
2017-12-24T07:35:43.386Z,27.10
2017-12-24T07:36:43.366Z,28.20
2017-12-24T07:37:43.345Z,26.00
2017-12-24T07:38:43.329Z,26.60
2017-12-24T07:39:43.304Z,25.30
2017-12-24T07:40:43.283Z,26.00
2017-12-24T07:41:43.269Z,28.30
2017-12-24T07:42:43.249Z,26.00
2017-12-24T07:43:43.230Z,25.40
2017-12-24T07:44:43.212Z,25.20
2017-12-24T07:45:43.195Z,25.90
2017-12-24T07:46:43.170Z,26.40
2017-12-24T07:47:43.153Z,24.70
2017-12-24T07:48:43.132Z,23.80
2017-12-24T07:49:43.113Z,25.20
2017-12-24T07:50:43.104Z,26.50
2017-12-24T07:51:43.078Z,25.50
2017-12-24T07:52:43.057Z,24.70
2017-12-24T07:53:43.040Z,23.40
2017-12-24T07:54:43.019Z,24.70
2017-12-24T07:55:43.000Z,24.80
2017-12-24T07:56:42.979Z,25.20
2017-12-24T07:57:42.960Z,25.10
2017-12-24T07:58:42.945Z,26.40
2017-12-24T07:59:42.923Z,26.20
2017-12-24T08:00:42.910Z,25.20
2017-12-24T08:01:42.894Z,26.40
2017-12-24T08:02:42.872Z,25.30
2017-12-24T08:03:42.847Z,25.60
2017-12-24T08:04:42.827Z,24.20
2017-12-24T08:05:42.808Z,24.20
2017-12-24T08:06:42.796Z,23.80
2017-12-24T08:07:42.779Z,23.40
2017-12-24T08:08:42.754Z,24.40
2017-12-24T08:09:42.732Z,25.10
2017-12-24T08:10:42.709Z,23.40
2017-12-24T08:11:42.694Z,24.30
2017-12-24T08:12:42.674Z,23.60
2017-12-24T08:13:42.656Z,23.10
2017-12-24T08:14:42.639Z,23.10
2017-12-24T08:15:42.625Z,23.90
2017-12-24T08:16:42.597Z,22.60
2017-12-24T08:17:42.581Z,22.00
2017-12-24T08:18:42.570Z,22.50
2017-12-24T08:19:42.543Z,20.50
2017-12-24T08:20:42.525Z,19.10
2017-12-24T08:21:42.503Z,20.20
2017-12-24T08:22:42.492Z,21.00
2017-12-24T08:23:42.462Z,21.60
2017-12-24T08:24:42.448Z,20.80
2017-12-24T08:25:42.425Z,19.70
2017-12-24T08:26:42.407Z,19.90
2017-12-24T08:27:42.391Z,20.60
2017-12-24T08:28:42.367Z,19.70
2017-12-24T08:29:42.349Z,19.90
2017-12-24T08:30:42.332Z,20.20
2017-12-24T08:31:42.309Z,19.70
2017-12-24T08:32:42.289Z,19.10
2017-12-24T08:33:42.271Z,18.60
2017-12-24T08:34:42.256Z,18.30
2017-12-24T08:35:42.239Z,19.30
2017-12-24T08:36:42.217Z,19.10
2017-12-24T08:37:42.192Z,17.60
2017-12-24T08:38:42.196Z,18.60
2017-12-24T08:39:42.158Z,18.60
2017-12-24T08:40:42.139Z,18.00
2017-12-24T08:41:42.120Z,18.70
2017-12-24T08:42:42.101Z,18.60
2017-12-24T08:43:42.079Z,18.70
2017-12-24T08:44:42.060Z,19.40
2017-12-24T08:45:42.041Z,17.80
2017-12-24T08:46:42.026Z,16.70
2017-12-24T08:47:42.005Z,18.40
2017-12-24T08:48:41.987Z,17.50
2017-12-24T08:49:41.968Z,16.40
2017-12-24T08:50:41.955Z,17.00
2017-12-24T08:51:41.929Z,17.60
2017-12-24T08:52:41.916Z,17.30
2017-12-24T08:53:41.888Z,17.00
2017-12-24T08:54:41.878Z,17.50
2017-12-24T08:55:41.850Z,16.30
2017-12-24T08:56:41.838Z,17.20
2017-12-24T08:57:41.815Z,17.60
2017-12-24T08:58:41.799Z,15.80
2017-12-24T08:59:41.774Z,15.20
2017-12-24T09:00:41.757Z,17.00
2017-12-24T09:01:41.735Z,15.80
2017-12-24T09:02:41.716Z,16.90
2017-12-24T09:03:41.697Z,14.90
2017-12-24T09:04:41.681Z,16.60
2017-12-24T09:05:41.657Z,16.00
2017-12-24T09:06:41.639Z,15.70
2017-12-24T09:07:41.630Z,16.10
2017-12-24T09:08:41.604Z,16.10
2017-12-24T09:09:41.582Z,15.90
2017-12-24T09:10:41.563Z,15.90
2017-12-24T09:11:41.543Z,16.50
2017-12-24T09:12:41.525Z,15.40
2017-12-24T09:13:41.537Z,16.20
2017-12-24T09:14:41.489Z,15.30
2017-12-24T09:15:41.466Z,16.50
2017-12-24T09:16:41.463Z,15.60
2017-12-24T09:17:41.427Z,15.70
2017-12-24T09:18:41.411Z,16.50
2017-12-24T09:19:41.389Z,16.10
2017-12-24T09:20:41.369Z,16.50
2017-12-24T09:21:41.349Z,15.80
2017-12-24T09:22:41.337Z,15.70
2017-12-24T09:23:41.313Z,16.50
2017-12-24T09:24:41.307Z,16.30
2017-12-24T09:25:41.278Z,15.70
2017-12-24T09:26:41.260Z,16.40
2017-12-24T09:27:41.238Z,16.40
2017-12-24T09:28:41.219Z,16.40
2017-12-24T09:29:41.194Z,15.40
2017-12-24T09:30:41.188Z,15.70
2017-12-24T09:31:41.160Z,15.70
2017-12-24T09:32:41.141Z,15.50
2017-12-24T09:33:41.122Z,16.20
2017-12-24T09:34:41.101Z,16.00
2017-12-24T09:35:41.079Z,14.80
2017-12-24T09:36:41.063Z,15.70
2017-12-24T09:37:41.050Z,16.40
2017-12-24T09:38:41.022Z,14.70
2017-12-24T09:39:41.006Z,15.10
2017-12-24T09:40:40.991Z,16.90
2017-12-24T09:41:40.967Z,17.00
2017-12-24T09:42:40.954Z,16.40
2017-12-24T09:43:40.926Z,14.90
2017-12-24T09:44:40.911Z,15.60
2017-12-24T09:45:40.887Z,14.00
2017-12-24T09:46:40.870Z,15.20
2017-12-24T09:47:40.847Z,12.60
2017-12-24T09:48:40.830Z,14.70
2017-12-24T09:49:40.808Z,14.20
2017-12-24T09:50:40.792Z,15.70
2017-12-24T09:51:40.775Z,15.10
2017-12-24T09:52:40.751Z,13.80
2017-12-24T09:53:40.738Z,13.20
2017-12-24T09:54:40.718Z,15.30
2017-12-24T09:55:40.699Z,14.40
2017-12-24T09:56:40.682Z,15.00
2017-12-24T09:57:40.653Z,14.40
2017-12-24T09:58:40.644Z,14.90
2017-12-24T09:59:40.634Z,14.90
2017-12-24T10:00:40.602Z,15.30
2017-12-24T10:01:40.588Z,14.90
2017-12-24T10:02:40.565Z,14.80
2017-12-24T10:03:40.541Z,15.20
2017-12-24T10:04:40.524Z,15.40
2017-12-24T10:05:40.499Z,15.40
2017-12-24T10:06:40.483Z,15.70
2017-12-24T10:07:40.469Z,14.40
2017-12-24T10:08:40.449Z,15.80
2017-12-24T10:09:40.431Z,13.90
2017-12-24T10:10:40.404Z,16.00
2017-12-24T10:11:40.388Z,14.60
2017-12-24T10:12:40.374Z,15.60
2017-12-24T10:13:40.349Z,15.40
2017-12-24T10:14:40.329Z,15.70
2017-12-24T10:15:40.311Z,15.30
2017-12-24T10:16:40.291Z,16.20
2017-12-24T10:17:40.272Z,16.10
2017-12-24T10:18:40.253Z,15.30
2017-12-24T10:19:40.237Z,16.20
2017-12-24T10:20:40.216Z,16.10
2017-12-24T10:21:40.197Z,15.50
2017-12-24T10:22:40.174Z,15.60
2017-12-24T10:23:40.157Z,16.00
2017-12-24T10:24:40.141Z,15.50
2017-12-24T10:25:40.137Z,16.00
2017-12-24T10:26:40.100Z,15.70
2017-12-24T10:27:40.087Z,15.50
2017-12-24T10:28:40.060Z,14.90
2017-12-24T10:29:40.040Z,15.50
2017-12-24T10:30:40.023Z,15.10
2017-12-24T10:31:40.003Z,15.20
2017-12-24T10:32:39.982Z,16.20
2017-12-24T10:33:39.969Z,15.50
2017-12-24T10:34:39.954Z,15.20
2017-12-24T10:35:39.931Z,14.90
2017-12-24T10:36:39.917Z,16.50
2017-12-24T10:37:39.889Z,18.40
2017-12-24T10:38:39.870Z,17.20
2017-12-24T10:39:39.855Z,16.30
2017-12-24T10:40:39.835Z,17.60
2017-12-24T10:41:39.819Z,17.30
2017-12-24T10:42:39.789Z,17.90
2017-12-24T10:43:39.778Z,16.60
2017-12-24T10:44:39.755Z,17.30
2017-12-24T10:45:39.737Z,18.80
2017-12-24T10:46:39.716Z,16.90
2017-12-24T10:47:39.698Z,18.50
2017-12-24T10:48:39.678Z,20.80
2017-12-24T10:49:39.654Z,19.30
2017-12-24T10:50:39.633Z,19.20
2017-12-24T10:51:39.617Z,19.50
2017-12-24T10:52:39.599Z,19.80
2017-12-24T10:53:39.586Z,18.10
2017-12-24T10:54:39.558Z,20.40
2017-12-24T10:55:39.558Z,19.50
2017-12-24T10:56:39.525Z,21.90
2017-12-24T10:57:39.508Z,19.70
2017-12-24T10:58:39.485Z,19.90
2017-12-24T10:59:39.470Z,20.20
2017-12-24T11:00:39.448Z,21.30
2017-12-24T11:01:39.428Z,21.40
2017-12-24T11:02:39.408Z,20.60
2017-12-24T11:03:39.391Z,22.60
2017-12-24T11:04:39.369Z,20.90
2017-12-24T11:05:39.350Z,20.10
2017-12-24T11:06:39.334Z,21.80
2017-12-24T11:07:39.313Z,21.40
2017-12-24T11:08:39.289Z,22.00
2017-12-24T11:09:39.270Z,20.70
2017-12-24T11:10:39.251Z,21.20
2017-12-24T11:11:39.233Z,20.20
2017-12-24T11:12:39.220Z,19.20
2017-12-24T11:13:39.189Z,19.80
2017-12-24T11:14:39.176Z,20.90
2017-12-24T11:15:39.157Z,19.70
2017-12-24T11:16:39.150Z,20.80
2017-12-24T11:17:39.121Z,22.10
2017-12-24T11:18:39.100Z,23.00
2017-12-24T11:19:39.086Z,20.90
2017-12-24T11:20:39.064Z,20.70
2017-12-24T11:21:39.039Z,21.20
2017-12-24T11:22:39.018Z,20.80
2017-12-24T11:23:38.998Z,21.10
2017-12-24T11:24:38.999Z,19.50
2017-12-24T11:25:38.966Z,21.20
2017-12-24T11:26:38.947Z,21.00
2017-12-24T11:27:38.920Z,19.90
2017-12-24T11:28:38.911Z,19.70
2017-12-24T11:29:38.888Z,20.20
2017-12-24T11:30:38.898Z,20.80
2017-12-24T11:31:38.849Z,16.70
2017-12-24T11:32:38.827Z,20.50
2017-12-24T11:33:38.809Z,19.50
2017-12-24T11:34:38.787Z,19.80
2017-12-24T11:35:38.773Z,19.60
2017-12-24T11:36:38.757Z,18.90
2017-12-24T11:37:38.732Z,18.40
2017-12-24T11:38:38.715Z,19.10
2017-12-24T11:39:38.693Z,19.40
2017-12-24T11:40:38.674Z,20.00
2017-12-24T11:41:38.658Z,20.10
2017-12-24T11:42:38.639Z,18.90
2017-12-24T11:43:38.622Z,18.30
2017-12-24T11:44:38.597Z,18.60
2017-12-24T11:45:38.575Z,20.60
2017-12-24T11:46:38.557Z,18.40
2017-12-24T11:47:38.539Z,18.40
2017-12-24T11:48:38.518Z,19.10
2017-12-24T11:49:38.503Z,17.10
2017-12-24T11:50:38.479Z,17.20
2017-12-24T11:51:38.469Z,17.70
2017-12-24T11:52:38.440Z,17.80
2017-12-24T11:53:38.419Z,18.10
2017-12-24T11:54:38.405Z,18.10
2017-12-24T11:55:38.385Z,18.00
2017-12-24T11:56:38.369Z,18.80
2017-12-24T11:57:38.355Z,16.90
2017-12-24T11:58:38.328Z,16.80
2017-12-24T11:59:38.305Z,17.30
2017-12-24T12:00:38.289Z,17.90
2017-12-24T12:01:38.264Z,17.80
2017-12-24T12:02:38.248Z,17.40
2017-12-24T12:03:38.229Z,18.10
2017-12-24T12:04:38.211Z,17.80
2017-12-24T12:05:38.200Z,17.70
2017-12-24T12:06:38.188Z,17.70
2017-12-24T12:07:38.168Z,18.00
2017-12-24T12:08:38.140Z,18.10
2017-12-24T12:09:38.139Z,16.70
2017-12-24T12:10:38.092Z,15.40
2017-12-24T12:11:38.080Z,16.10
2017-12-24T12:12:38.073Z,16.30
2017-12-24T12:13:38.040Z,13.10
2017-12-24T12:14:38.028Z,14.10
2017-12-24T12:15:37.998Z,14.20
2017-12-24T12:16:37.979Z,14.30
2017-12-24T12:17:37.956Z,14.40
2017-12-24T12:18:37.950Z,15.40
2017-12-24T12:19:37.921Z,14.80
2017-12-24T12:20:37.899Z,14.20
2017-12-24T12:21:37.880Z,13.40
2017-12-24T12:22:37.861Z,13.70
2017-12-24T12:23:37.845Z,13.20
2017-12-24T12:24:37.831Z,13.30
2017-12-24T12:25:37.810Z,12.10
2017-12-24T12:26:37.784Z,12.10
2017-12-24T12:27:37.766Z,13.10
2017-12-24T12:28:37.746Z,14.00
2017-12-24T12:29:37.723Z,13.20
2017-12-24T12:30:37.703Z,12.50
2017-12-24T12:31:37.690Z,12.50
2017-12-24T12:32:37.668Z,12.30
2017-12-24T12:33:37.647Z,12.80
2017-12-24T12:34:37.626Z,12.50
2017-12-24T12:35:37.614Z,13.60
2017-12-24T12:36:37.589Z,13.40
2017-12-24T12:37:37.570Z,12.80
2017-12-24T12:38:37.561Z,13.20
2017-12-24T12:39:37.539Z,11.70
2017-12-24T12:40:37.535Z,13.00
2017-12-24T12:41:37.494Z,12.40
2017-12-24T12:42:37.479Z,11.30
2017-12-24T12:43:37.459Z,12.20
2017-12-24T12:44:37.438Z,11.60
2017-12-24T12:45:37.418Z,10.00
2017-12-24T12:46:37.395Z,10.90
2017-12-24T12:47:37.381Z,9.70
2017-12-24T12:48:37.365Z,11.40
2017-12-24T12:49:37.343Z,10.60
2017-12-24T12:50:37.320Z,10.40
2017-12-24T12:51:37.299Z,11.10
2017-12-24T12:52:37.282Z,11.20